createdAt,value
2019-01-18T00:00:50.667Z,3.05
2019-01-18T00:03:19.962Z,2.70
2019-01-18T00:05:49.260Z,2.75
2019-01-18T00:08:18.547Z,2.40
2019-01-18T00:10:47.848Z,2.70
2019-01-18T00:13:17.439Z,2.95
2019-01-18T00:15:46.715Z,3.52
2019-01-18T00:18:16.251Z,3.12
2019-01-18T00:20:45.852Z,2.95
2019-01-18T00:23:15.131Z,2.90
2019-01-18T00:25:44.423Z,3.50
2019-01-18T00:28:13.703Z,3.30
2019-01-18T00:30:43.272Z,3.02
2019-01-18T00:33:12.554Z,3.27
2019-01-18T00:35:41.823Z,3.05
2019-01-18T00:38:11.404Z,3.25
2019-01-18T00:40:40.975Z,2.98
2019-01-18T00:43:10.583Z,3.92
2019-01-18T00:45:39.860Z,3.87
2019-01-18T00:48:09.391Z,3.27
2019-01-18T00:50:38.668Z,3.85
2019-01-18T00:53:07.951Z,4.03
2019-01-18T00:55:37.295Z,3.17
2019-01-18T00:58:06.585Z,3.58
2019-01-18T01:00:36.203Z,2.30
2019-01-18T01:03:05.543Z,2.50
2019-01-18T01:05:34.843Z,2.52
2019-01-18T01:08:04.387Z,2.83
2019-01-18T01:10:33.675Z,2.85
2019-01-18T01:13:02.943Z,2.70
2019-01-18T01:15:32.235Z,2.70
2019-01-18T01:18:01.515Z,2.45
2019-01-18T01:20:30.795Z,2.95
2019-01-18T01:23:00.078Z,2.08
2019-01-18T01:25:29.375Z,2.35
2019-01-18T01:27:58.655Z,2.58
2019-01-18T01:30:27.940Z,2.17
2019-01-18T01:32:57.210Z,2.50
2019-01-18T01:35:26.503Z,1.95
2019-01-18T01:37:55.775Z,2.30
2019-01-18T01:40:26.707Z,2.30
2019-01-18T01:42:55.990Z,2.27
2019-01-18T01:45:25.453Z,2.20
2019-01-18T01:47:54.719Z,2.33
2019-01-18T01:50:25.731Z,2.70
2019-01-18T01:52:55.379Z,2.98
2019-01-18T01:55:24.651Z,3.35
2019-01-18T01:57:53.947Z,2.17
2019-01-18T02:00:25.465Z,3.62
2019-01-18T02:02:54.812Z,2.60
2019-01-18T02:05:24.423Z,2.92
2019-01-18T02:07:54.077Z,3.42
2019-01-18T02:10:23.787Z,4.53
2019-01-18T02:12:53.063Z,3.70
2019-01-18T02:15:24.759Z,3.67
2019-01-18T02:17:54.123Z,4.30
2019-01-18T02:20:24.147Z,3.42
2019-01-18T02:22:53.771Z,4.58
2019-01-18T02:25:23.116Z,3.83
2019-01-18T02:27:52.679Z,3.35
2019-01-18T02:30:27.410Z,3.77
2019-01-18T02:32:56.679Z,2.80
2019-01-18T02:35:25.950Z,3.85
2019-01-18T02:37:55.253Z,3.87
2019-01-18T02:40:24.823Z,3.12
2019-01-18T02:42:54.180Z,2.98
2019-01-18T02:45:23.999Z,2.30
2019-01-18T02:47:53.287Z,3.45
2019-01-18T02:50:22.564Z,1.95
2019-01-18T02:52:51.875Z,3.02
2019-01-18T02:55:28.527Z,2.00
2019-01-18T02:57:52.114Z,2.27
2019-01-18T03:00:23.134Z,1.92
2019-01-18T03:02:52.922Z,1.90
2019-01-18T03:05:24.535Z,1.98
2019-01-18T03:07:54.370Z,2.12
2019-01-18T03:10:26.451Z,2.72
2019-01-18T03:12:55.756Z,2.40
2019-01-18T03:15:25.023Z,2.87
2019-01-18T03:17:54.454Z,3.25
2019-01-18T03:20:23.727Z,3.25
2019-01-18T03:22:53.025Z,3.00
2019-01-18T03:25:24.814Z,3.10
2019-01-18T03:27:54.093Z,2.37
2019-01-18T03:30:23.634Z,3.33
2019-01-18T03:32:52.924Z,2.85
2019-01-18T03:35:23.179Z,3.10
2019-01-18T03:37:52.759Z,2.67
2019-01-18T03:40:22.175Z,3.05
2019-01-18T03:42:51.890Z,3.52
2019-01-18T03:45:21.273Z,2.92
2019-01-18T03:47:50.616Z,3.08
2019-01-18T03:50:24.674Z,3.08
2019-01-18T03:52:54.305Z,3.37
2019-01-18T03:55:23.642Z,3.90
2019-01-18T03:57:52.940Z,2.85
2019-01-18T04:00:26.970Z,3.12
2019-01-18T04:02:56.291Z,3.05
2019-01-18T04:05:25.652Z,2.75
2019-01-18T04:07:54.990Z,2.25
2019-01-18T04:10:24.358Z,3.67
2019-01-18T04:12:53.634Z,3.02
2019-01-18T04:15:24.329Z,2.85
2019-01-18T04:17:53.677Z,3.10
2019-01-18T04:20:23.689Z,3.05
2019-01-18T04:22:53.284Z,2.50
2019-01-18T04:25:24.527Z,3.50
2019-01-18T04:27:53.831Z,3.00
2019-01-18T04:30:24.060Z,2.47
2019-01-18T04:32:53.453Z,2.70
2019-01-18T04:35:23.167Z,3.05
2019-01-18T04:37:52.725Z,3.58
2019-01-18T04:40:28.638Z,4.00
2019-01-18T04:42:57.920Z,3.02
2019-01-18T04:45:27.214Z,3.52
2019-01-18T04:47:56.488Z,3.50
2019-01-18T04:50:28.014Z,4.42
2019-01-18T04:52:57.722Z,3.50
2019-01-18T04:55:27.056Z,3.40
2019-01-18T04:57:56.348Z,3.70
2019-01-18T05:00:27.769Z,3.72
2019-01-18T05:02:57.139Z,2.87
2019-01-18T05:05:26.475Z,3.00
2019-01-18T05:07:55.840Z,3.60
2019-01-18T05:10:27.152Z,3.05
2019-01-18T05:12:56.820Z,3.30
2019-01-18T05:15:31.140Z,2.90
2019-01-18T05:18:00.731Z,3.17
2019-01-18T05:20:30.180Z,3.08
2019-01-18T05:22:59.471Z,3.10
2019-01-18T05:25:28.768Z,3.05
2019-01-18T05:27:58.046Z,2.92
2019-01-18T05:30:29.059Z,3.15
2019-01-18T05:32:58.337Z,3.20
2019-01-18T05:35:27.726Z,5.95
2019-01-18T05:37:57.071Z,4.25
2019-01-18T05:40:26.688Z,3.92
2019-01-18T05:42:55.958Z,3.70
2019-01-18T05:45:25.246Z,4.05
2019-01-18T05:47:54.521Z,4.00
2019-01-18T05:50:26.393Z,4.65
2019-01-18T05:52:55.803Z,3.90
2019-01-18T05:55:25.096Z,3.72
2019-01-18T05:57:54.384Z,4.00
2019-01-18T06:00:30.639Z,5.42
2019-01-18T06:02:59.931Z,4.37
2019-01-18T06:05:30.248Z,4.67
2019-01-18T06:07:59.531Z,4.58
2019-01-18T06:10:29.056Z,5.00
2019-01-18T06:12:58.350Z,4.72
2019-01-18T06:15:29.297Z,6.12
2019-01-18T06:17:58.588Z,5.12
2019-01-18T06:20:27.866Z,4.12
2019-01-18T06:22:57.167Z,4.62
2019-01-18T06:25:26.436Z,4.85
2019-01-18T06:27:55.761Z,4.45
2019-01-18T06:30:25.327Z,4.28
2019-01-18T06:32:54.626Z,3.62
2019-01-18T06:35:24.213Z,5.20
2019-01-18T06:37:53.500Z,4.47
2019-01-18T06:40:23.461Z,4.50
2019-01-18T06:42:52.748Z,4.25
2019-01-18T06:45:28.063Z,4.40
2019-01-18T06:47:57.350Z,4.67
2019-01-18T06:50:26.623Z,4.10
2019-01-18T06:52:55.928Z,4.62
2019-01-18T06:55:25.196Z,4.25
2019-01-18T06:57:54.771Z,4.40
2019-01-18T07:00:29.348Z,5.67
2019-01-18T07:02:58.759Z,5.28
2019-01-18T07:05:28.051Z,4.45
2019-01-18T07:07:57.612Z,5.50
2019-01-18T07:10:27.323Z,5.58
2019-01-18T07:12:56.928Z,5.50
2019-01-18T07:15:26.535Z,6.22
2019-01-18T07:17:55.815Z,7.10
2019-01-18T07:20:25.106Z,7.72
2019-01-18T07:22:54.392Z,6.58
2019-01-18T07:25:28.483Z,7.87
2019-01-18T07:27:57.830Z,6.40
2019-01-18T07:30:32.584Z,6.97
2019-01-18T07:33:01.883Z,6.55
2019-01-18T07:35:31.174Z,7.28
2019-01-18T07:38:00.456Z,6.50
2019-01-18T07:40:29.755Z,7.78
2019-01-18T07:42:59.032Z,8.08
2019-01-18T07:45:30.268Z,8.40
2019-01-18T07:47:59.542Z,7.58
2019-01-18T07:50:28.834Z,7.55
2019-01-18T07:52:58.106Z,6.90
2019-01-18T07:55:27.415Z,8.20
2019-01-18T07:57:56.686Z,7.72
2019-01-18T08:00:28.460Z,12.55
2019-01-18T08:02:57.736Z,8.38
2019-01-18T08:05:28.479Z,7.92
2019-01-18T08:07:57.990Z,8.45
2019-01-18T08:10:27.356Z,8.68
2019-01-18T08:12:56.634Z,8.25
2019-01-18T08:15:27.367Z,7.00
2019-01-18T08:17:57.103Z,7.40
2019-01-18T08:20:28.114Z,6.40
2019-01-18T08:22:57.943Z,7.72
2019-01-18T08:25:27.318Z,6.37
2019-01-18T08:27:56.668Z,5.87
2019-01-18T08:30:29.877Z,5.40
2019-01-18T08:32:59.468Z,5.30
2019-01-18T08:35:29.011Z,5.33
2019-01-18T08:37:58.542Z,4.78
2019-01-18T08:40:33.758Z,5.30
2019-01-18T08:43:03.496Z,5.03
2019-01-18T08:45:41.443Z,4.97
2019-01-18T08:48:10.736Z,4.78
2019-01-18T08:50:41.334Z,4.50
2019-01-18T08:53:10.937Z,4.97
2019-01-18T08:55:40.447Z,4.55
2019-01-18T08:58:09.730Z,4.10
2019-01-18T09:00:39.253Z,4.75
2019-01-18T09:03:08.535Z,3.58
2019-01-18T09:05:38.160Z,3.98
2019-01-18T09:08:07.430Z,4.12
2019-01-18T09:10:37.488Z,4.05
2019-01-18T09:13:06.763Z,5.55
2019-01-18T09:15:36.046Z,4.42
2019-01-18T09:18:05.613Z,4.15
2019-01-18T09:20:34.962Z,4.15
2019-01-18T09:23:04.520Z,4.05
2019-01-18T09:25:33.963Z,4.97
2019-01-18T09:28:03.247Z,5.37
2019-01-18T09:30:34.059Z,4.08
2019-01-18T09:33:04.993Z,5.17
2019-01-18T09:35:35.015Z,7.10
2019-01-18T09:38:06.341Z,4.92
2019-01-18T09:40:35.711Z,5.28
2019-01-18T09:43:05.048Z,3.95
2019-01-18T09:45:34.344Z,4.25
2019-01-18T09:48:04.263Z,3.83
2019-01-18T09:50:33.733Z,3.62
2019-01-18T09:53:05.445Z,4.53
2019-01-18T09:55:35.486Z,4.08
2019-01-18T09:58:05.454Z,3.90
2019-01-18T10:00:37.319Z,4.30
2019-01-18T10:03:06.684Z,3.70
2019-01-18T10:05:35.979Z,5.15
2019-01-18T10:08:05.323Z,3.95
2019-01-18T10:10:34.629Z,4.60
2019-01-18T10:13:04.004Z,3.00
2019-01-18T10:15:35.923Z,4.15
2019-01-18T10:18:06.151Z,4.58
2019-01-18T10:20:35.448Z,3.90
2019-01-18T10:23:05.323Z,4.60
2019-01-18T10:25:34.611Z,3.70
2019-01-18T10:28:03.951Z,4.97
2019-01-18T10:30:33.248Z,4.85
2019-01-18T10:33:02.587Z,5.90
2019-01-18T10:35:31.947Z,5.05
2019-01-18T10:38:01.549Z,4.80
2019-01-18T10:40:30.879Z,5.40
2019-01-18T10:43:00.150Z,5.78
2019-01-18T10:45:29.448Z,5.37
2019-01-18T10:48:00.024Z,5.90
2019-01-18T10:50:31.548Z,5.05
2019-01-18T10:53:00.955Z,5.70
2019-01-18T10:55:30.255Z,5.50
2019-01-18T10:57:59.611Z,5.28
2019-01-18T11:00:32.171Z,6.17
2019-01-18T11:03:01.536Z,5.55
2019-01-18T11:05:31.115Z,5.30
2019-01-18T11:08:00.419Z,5.28
2019-01-18T11:10:29.919Z,5.08
2019-01-18T11:12:59.213Z,5.53
2019-01-18T11:15:29.234Z,5.45
2019-01-18T11:17:58.585Z,5.30
2019-01-18T11:20:36.538Z,5.28
2019-01-18T11:23:06.150Z,4.72
2019-01-18T11:25:35.438Z,5.30
2019-01-18T11:28:04.779Z,4.47
2019-01-18T11:30:34.059Z,4.78
2019-01-18T11:33:03.668Z,5.00
2019-01-18T11:35:33.371Z,4.30
2019-01-18T11:38:02.651Z,3.92
2019-01-18T11:40:31.940Z,5.75
2019-01-18T11:43:01.212Z,5.28
2019-01-18T11:45:30.491Z,4.50
2019-01-18T11:47:59.831Z,4.85
2019-01-18T11:50:29.391Z,4.17
2019-01-18T11:52:58.991Z,4.45
2019-01-18T11:55:28.279Z,4.47
2019-01-18T11:57:57.551Z,4.75
2019-01-18T12:00:28.854Z,4.28
2019-01-18T12:02:58.122Z,4.55
2019-01-18T12:05:27.758Z,4.40
2019-01-18T12:07:57.059Z,4.10
2019-01-18T12:10:30.794Z,4.22
2019-01-18T12:13:00.086Z,3.80
2019-01-18T12:15:29.360Z,4.10
2019-01-18T12:17:58.957Z,3.22
2019-01-18T12:20:30.950Z,3.10
2019-01-18T12:23:00.410Z,3.55
2019-01-18T12:25:29.686Z,3.92
2019-01-18T12:27:58.982Z,4.40
2019-01-18T12:30:30.696Z,4.05
2019-01-18T12:32:59.991Z,4.92
2019-01-18T12:35:29.583Z,4.60
2019-01-18T12:37:58.867Z,4.78
2019-01-18T12:40:28.135Z,4.53
2019-01-18T12:42:57.888Z,5.50
2019-01-18T12:45:27.323Z,6.83
2019-01-18T12:47:56.620Z,5.30
2019-01-18T12:50:28.712Z,7.05
2019-01-18T12:52:58.003Z,5.50
2019-01-18T12:55:27.338Z,5.20
2019-01-18T12:57:56.627Z,5.62
2019-01-18T13:00:27.848Z,5.60
2019-01-18T13:02:57.494Z,6.62
2019-01-18T13:05:30.023Z,6.45
2019-01-18T13:07:59.318Z,6.47
2019-01-18T13:10:28.919Z,5.97
2019-01-18T13:12:58.272Z,6.15
2019-01-18T13:15:42.855Z,6.20
2019-01-18T13:18:12.155Z,6.80
2019-01-18T13:20:41.428Z,6.05
2019-01-18T13:23:10.987Z,6.97
2019-01-18T13:25:40.276Z,5.70
2019-01-18T13:28:09.559Z,6.87
2019-01-18T13:30:38.839Z,6.15
2019-01-18T13:33:08.140Z,6.72
2019-01-18T13:35:37.412Z,6.90
2019-01-18T13:38:06.714Z,5.87
2019-01-18T13:40:35.990Z,6.17
2019-01-18T13:43:05.591Z,6.12
2019-01-18T13:45:34.884Z,6.75
2019-01-18T13:48:04.628Z,6.45
2019-01-18T13:50:34.210Z,5.60
2019-01-18T13:53:03.557Z,5.25
2019-01-18T13:55:32.844Z,6.20
2019-01-18T13:58:02.110Z,6.85
2019-01-18T14:00:31.399Z,6.40
2019-01-18T14:03:00.821Z,5.70
2019-01-18T14:05:30.527Z,5.75
2019-01-18T14:07:59.798Z,5.45
2019-01-18T14:10:33.635Z,5.95
2019-01-18T14:13:02.939Z,7.08
2019-01-18T14:15:32.243Z,5.90
2019-01-18T14:18:01.844Z,6.12
2019-01-18T14:20:31.126Z,6.22
2019-01-18T14:23:00.415Z,4.78
2019-01-18T14:25:29.771Z,4.50
2019-01-18T14:27:59.051Z,4.85
2019-01-18T14:30:29.309Z,4.30
2019-01-18T14:32:58.661Z,4.60
2019-01-18T14:35:28.179Z,4.10
2019-01-18T14:37:57.478Z,4.42
2019-01-18T14:40:26.827Z,5.80
2019-01-18T14:42:56.122Z,5.67
2019-01-18T14:45:37.263Z,5.90
2019-01-18T14:48:06.551Z,5.60
2019-01-18T14:50:35.900Z,6.37
2019-01-18T14:53:05.531Z,7.20
2019-01-18T14:55:35.446Z,6.30
2019-01-18T14:58:07.388Z,6.80
2019-01-18T15:00:38.300Z,7.65
2019-01-18T15:03:07.759Z,8.30
2019-01-18T15:05:37.051Z,6.17
2019-01-18T15:08:06.390Z,8.90
2019-01-18T15:10:35.687Z,8.05
2019-01-18T15:13:13.608Z,10.53
2019-01-18T15:15:43.032Z,8.88
2019-01-18T15:18:12.503Z,10.10
2019-01-18T15:20:41.788Z,10.20
2019-01-18T15:23:11.087Z,10.45
2019-01-18T15:25:40.372Z,10.00
2019-01-18T15:28:09.671Z,9.45
2019-01-18T15:30:38.951Z,9.38
2019-01-18T15:33:09.268Z,9.53
2019-01-18T15:35:38.992Z,10.53
2019-01-18T15:38:08.354Z,10.93
2019-01-18T15:40:40.939Z,9.08
2019-01-18T15:43:11.598Z,9.15
2019-01-18T15:45:40.893Z,9.05
2019-01-18T15:48:10.570Z,8.98
2019-01-18T15:50:39.882Z,8.58
2019-01-18T15:53:09.154Z,8.45
2019-01-18T15:55:38.494Z,13.43
2019-01-18T15:58:07.813Z,11.20
2019-01-18T16:00:39.242Z,10.85
2019-01-18T16:03:08.623Z,10.70
2019-01-18T16:05:37.906Z,9.75
2019-01-18T16:08:07.427Z,9.28
2019-01-18T16:10:36.701Z,8.78
2019-01-18T16:13:06.126Z,8.15
2019-01-18T16:15:38.490Z,9.18
2019-01-18T16:18:10.991Z,8.40
2019-01-18T16:20:40.335Z,9.80
2019-01-18T16:23:09.624Z,8.63
2019-01-18T16:25:39.015Z,10.78
2019-01-18T16:28:08.355Z,9.73
2019-01-18T16:30:37.652Z,9.80
2019-01-18T16:33:06.947Z,8.60
2019-01-18T16:35:36.292Z,8.43
2019-01-18T16:38:08.647Z,8.20
2019-01-18T16:40:37.922Z,9.45
2019-01-18T16:43:13.131Z,7.80
2019-01-18T16:45:42.406Z,6.97
2019-01-18T16:48:11.703Z,7.25
2019-01-18T16:50:40.999Z,9.40
2019-01-18T16:53:10.365Z,10.80
2019-01-18T16:55:39.662Z,12.78
2019-01-18T16:58:08.963Z,11.48
2019-01-18T17:00:44.370Z,12.70
2019-01-18T17:03:13.663Z,11.60
2019-01-18T17:05:43.019Z,11.60
2019-01-18T17:08:12.315Z,10.23
2019-01-18T17:10:41.659Z,9.70
2019-01-18T17:13:10.960Z,9.53
2019-01-18T17:15:40.241Z,9.13
2019-01-18T17:18:09.534Z,7.50
2019-01-18T17:20:46.739Z,8.03
2019-01-18T17:23:16.023Z,7.75
2019-01-18T17:25:45.547Z,7.70
2019-01-18T17:28:14.843Z,7.75
2019-01-18T17:30:44.119Z,7.95
2019-01-18T17:33:13.761Z,7.22
2019-01-18T17:35:54.946Z,7.92
2019-01-18T17:38:33.067Z,7.78
2019-01-18T17:41:27.834Z,8.13
2019-01-18T17:44:18.315Z,7.72
2019-01-18T17:47:02.723Z,7.45
2019-01-18T17:49:43.916Z,7.85
2019-01-18T17:52:19.172Z,8.33
2019-01-18T17:54:51.541Z,6.65
2019-01-18T17:57:32.799Z,7.15
2019-01-18T18:00:14.407Z,8.35
2019-01-18T18:02:58.791Z,6.70
2019-01-18T18:05:47.976Z,6.90
2019-01-18T18:08:35.126Z,8.15
2019-01-18T18:11:30.383Z,7.70
2019-01-18T18:14:16.214Z,7.65
2019-01-18T18:17:06.667Z,8.03
2019-01-18T18:19:39.020Z,9.40
2019-01-18T18:22:31.105Z,7.70
2019-01-18T18:25:09.051Z,7.58
2019-01-18T18:28:03.470Z,7.17
2019-01-18T18:30:35.824Z,6.33
2019-01-18T18:33:35.620Z,12.10
2019-01-18T18:36:13.339Z,9.78
2019-01-18T18:39:05.044Z,11.40
2019-01-18T18:41:52.143Z,9.80
2019-01-18T18:44:33.298Z,13.40
2019-01-18T18:47:28.126Z,12.85
2019-01-18T18:50:03.082Z,12.47
2019-01-18T18:52:50.590Z,12.10
2019-01-18T18:55:44.315Z,10.35
2019-01-18T18:58:25.403Z,9.60
2019-01-18T19:01:09.038Z,10.13
2019-01-18T19:03:44.496Z,11.35
2019-01-18T19:06:39.730Z,8.65
2019-01-18T19:09:31.627Z,9.73
2019-01-18T19:12:06.437Z,7.22
2019-01-18T19:14:50.894Z,8.75
2019-01-18T19:17:23.599Z,10.85
2019-01-18T19:20:30.904Z,9.25
2019-01-18T19:23:09.516Z,14.07
2019-01-18T19:25:50.829Z,10.72
2019-01-18T19:28:44.522Z,17.40
2019-01-18T19:31:31.763Z,16.50
2019-01-18T19:34:09.839Z,14.13
2019-01-18T19:36:57.175Z,14.50
2019-01-18T19:39:38.048Z,12.37
2019-01-18T19:42:16.275Z,10.82
2019-01-18T19:45:12.843Z,10.53
2019-01-18T19:47:51.017Z,6.67
2019-01-18T19:50:40.875Z,7.97
2019-01-18T19:53:22.098Z,6.37
2019-01-18T19:56:11.179Z,5.45
2019-01-18T19:58:52.115Z,5.78
2019-01-18T20:01:33.379Z,6.45
2019-01-18T20:04:17.785Z,6.05
2019-01-18T20:07:23.675Z,6.70
2019-01-18T20:10:11.188Z,6.70
2019-01-18T20:12:52.747Z,8.28
2019-01-18T20:15:25.123Z,7.50
2019-01-18T20:18:06.315Z,6.87
2019-01-18T20:20:41.683Z,8.70
2019-01-18T20:23:31.818Z,7.60
2019-01-18T20:26:04.187Z,7.97
2019-01-18T20:28:48.603Z,8.58
2019-01-18T20:31:33.126Z,8.45
2019-01-18T20:34:18.515Z,8.35
2019-01-18T20:36:56.831Z,7.92
2019-01-18T20:39:47.223Z,9.08
2019-01-18T20:42:39.559Z,9.30
2019-01-18T20:45:21.148Z,10.38
2019-01-18T20:48:08.480Z,9.73
2019-01-18T20:50:55.214Z,8.78
2019-01-18T20:53:51.659Z,11.08
2019-01-18T20:56:32.883Z,9.20
2019-01-18T20:59:14.047Z,8.80
2019-01-18T21:01:55.392Z,10.05
2019-01-18T21:04:33.167Z,7.70
2019-01-18T21:07:04.707Z,8.70
2019-01-18T21:09:48.751Z,8.80
2019-01-18T21:12:33.252Z,7.15
2019-01-18T21:15:17.628Z,9.30
2019-01-18T21:18:07.983Z,9.40
2019-01-18T21:20:40.348Z,7.62
2019-01-18T21:23:29.227Z,8.05
2019-01-18T21:26:16.755Z,8.65
2019-01-18T21:29:11.791Z,8.88
2019-01-18T21:31:50.152Z,10.55
2019-01-18T21:34:32.793Z,13.05
2019-01-18T21:37:07.478Z,11.15
2019-01-18T21:40:05.846Z,11.85
2019-01-18T21:42:50.371Z,11.88
2019-01-18T21:45:29.059Z,9.45
2019-01-18T21:48:01.428Z,8.20
2019-01-18T21:50:51.840Z,7.30
2019-01-18T21:53:36.243Z,6.75
2019-01-18T21:56:11.161Z,8.00
2019-01-18T21:58:55.468Z,7.12
2019-01-18T22:01:30.482Z,9.68
2019-01-18T22:04:14.461Z,11.00
2019-01-18T22:06:55.695Z,10.68
2019-01-18T22:09:46.176Z,10.05
2019-01-18T22:12:39.113Z,13.32
2019-01-18T22:15:18.758Z,9.90
2019-01-18T22:17:51.122Z,10.35
2019-01-18T22:20:29.524Z,8.13
2019-01-18T22:23:04.934Z,8.08
2019-01-18T22:25:43.200Z,7.53
2019-01-18T22:28:42.491Z,6.92
2019-01-18T22:31:23.656Z,6.62
2019-01-18T22:34:01.577Z,7.15
2019-01-18T22:37:05.654Z,6.47
2019-01-18T22:39:56.460Z,5.08
2019-01-18T22:42:34.759Z,6.60
2019-01-18T22:45:10.208Z,6.55
2019-01-18T22:48:02.340Z,6.53
2019-01-18T22:50:43.318Z,7.35
2019-01-18T22:53:30.642Z,6.35
2019-01-18T22:56:21.336Z,5.95
2019-01-18T22:59:10.168Z,7.15
2019-01-18T23:01:45.340Z,6.50
2019-01-18T23:04:34.526Z,6.17
2019-01-18T23:07:15.399Z,6.42
2019-01-18T23:09:59.150Z,5.40
2019-01-18T23:12:46.439Z,5.83
2019-01-18T23:15:40.087Z,5.08
2019-01-18T23:18:45.692Z,4.78
2019-01-18T23:21:20.786Z,5.05
2019-01-18T23:24:13.719Z,5.53
2019-01-18T23:26:57.843Z,4.53
2019-01-18T23:29:38.962Z,5.08
2019-01-18T23:32:29.736Z,4.75
2019-01-18T23:35:05.183Z,5.17
2019-01-18T23:37:40.311Z,4.30
2019-01-18T23:40:31.007Z,4.67
2019-01-18T23:43:21.231Z,4.65
2019-01-18T23:46:11.771Z,4.85
2019-01-18T23:48:47.104Z,5.08
2019-01-18T23:51:28.256Z,5.37
2019-01-18T23:54:00.615Z,4.83
2019-01-18T23:56:45.095Z,5.60
2019-01-18T23:59:20.350Z,5.37
